sensor_id;sensor_type;location;lat;lon;timestamp;P1;durP1;ratioP1;P2;durP2;ratioP2
10303;SDS011;5197;48.152;8.590;2022-08-06T00:00:05;14.93;;;10.53;;
10303;SDS011;5197;48.152;8.590;2022-08-06T00:02:35;11.80;;;10.67;;
10303;SDS011;5197;48.152;8.590;2022-08-06T00:05:03;12.27;;;10.80;;
10303;SDS011;5197;48.152;8.590;2022-08-06T00:07:32;12.77;;;11.47;;
10303;SDS011;5197;48.152;8.590;2022-08-06T00:10:13;11.50;;;10.40;;
10303;SDS011;5197;48.152;8.590;2022-08-06T00:12:44;12.97;;;11.67;;
10303;SDS011;5197;48.152;8.590;2022-08-06T00:15:14;12.47;;;11.33;;
10303;SDS011;5197;48.152;8.590;2022-08-06T00:18:04;11.50;;;10.30;;
10303;SDS011;5197;48.152;8.590;2022-08-06T00:20:31;12.13;;;10.20;;
10303;SDS011;5197;48.152;8.590;2022-08-06T00:23:07;10.90;;;9.70;;
10303;SDS011;5197;48.152;8.590;2022-08-06T00:25:42;10.53;;;9.47;;
10303;SDS011;5197;48.152;8.590;2022-08-06T00:28:18;13.67;;;10.73;;
10303;SDS011;5197;48.152;8.590;2022-08-06T00:30:56;10.97;;;9.23;;
10303;SDS011;5197;48.152;8.590;2022-08-06T00:33:26;8.43;;;7.50;;
10303;SDS011;5197;48.152;8.590;2022-08-06T00:36:09;10.30;;;7.57;;
10303;SDS011;5197;48.152;8.590;2022-08-06T00:38:36;8.37;;;7.67;;
10303;SDS011;5197;48.152;8.590;2022-08-06T00:41:03;7.27;;;6.57;;
10303;SDS011;5197;48.152;8.590;2022-08-06T00:43:33;7.83;;;7.03;;
10303;SDS011;5197;48.152;8.590;2022-08-06T00:46:06;6.70;;;6.03;;
10303;SDS011;5197;48.152;8.590;2022-08-06T00:48:42;5.97;;;5.27;;
10303;SDS011;5197;48.152;8.590;2022-08-06T00:51:20;6.87;;;5.60;;
10303;SDS011;5197;48.152;8.590;2022-08-06T00:53:51;5.53;;;5.03;;
10303;SDS011;5197;48.152;8.590;2022-08-06T00:56:23;4.80;;;4.40;;
10303;SDS011;5197;48.152;8.590;2022-08-06T00:58:54;4.17;;;3.80;;
10303;SDS011;5197;48.152;8.590;2022-08-06T01:01:29;3.93;;;3.63;;
10303;SDS011;5197;48.152;8.590;2022-08-06T01:04:14;3.70;;;3.40;;
10303;SDS011;5197;48.152;8.590;2022-08-06T01:06:41;3.93;;;3.60;;
10303;SDS011;5197;48.152;8.590;2022-08-06T01:09:21;3.83;;;2.80;;
10303;SDS011;5197;48.152;8.590;2022-08-06T01:11:49;4.17;;;3.20;;
10303;SDS011;5197;48.152;8.590;2022-08-06T01:14:17;3.77;;;3.00;;
10303;SDS011;5197;48.152;8.590;2022-08-06T01:17:06;3.10;;;2.77;;
10303;SDS011;5197;48.152;8.590;2022-08-06T01:29:04;2.87;;;2.67;;
10303;SDS011;5197;48.152;8.590;2022-08-06T01:32:02;3.07;;;2.60;;
10303;SDS011;5197;48.152;8.590;2022-08-06T01:34:39;3.33;;;2.50;;
10303;SDS011;5197;48.152;8.590;2022-08-06T01:37:24;4.97;;;2.47;;
10303;SDS011;5197;48.152;8.590;2022-08-06T01:40:06;2.97;;;2.53;;
10303;SDS011;5197;48.152;8.590;2022-08-06T01:42:39;2.77;;;2.60;;
10303;SDS011;5197;48.152;8.590;2022-08-06T01:45:11;2.53;;;2.40;;
10303;SDS011;5197;48.152;8.590;2022-08-06T01:47:40;2.40;;;2.20;;
10303;SDS011;5197;48.152;8.590;2022-08-06T01:50:21;2.53;;;2.30;;
10303;SDS011;5197;48.152;8.590;2022-08-06T01:52:53;5.57;;;2.57;;
10303;SDS011;5197;48.152;8.590;2022-08-06T01:55:26;2.27;;;2.03;;
10303;SDS011;5197;48.152;8.590;2022-08-06T01:58:17;3.13;;;2.10;;
10303;SDS011;5197;48.152;8.590;2022-08-06T02:00:55;3.50;;;2.23;;
10303;SDS011;5197;48.152;8.590;2022-08-06T02:03:31;2.50;;;2.30;;
10303;SDS011;5197;48.152;8.590;2022-08-06T02:06:22;2.63;;;2.20;;
10303;SDS011;5197;48.152;8.590;2022-08-06T02:08:56;2.63;;;2.20;;
10303;SDS011;5197;48.152;8.590;2022-08-06T02:11:50;2.50;;;2.30;;
10303;SDS011;5197;48.152;8.590;2022-08-06T02:14:32;3.83;;;1.87;;
10303;SDS011;5197;48.152;8.590;2022-08-06T02:17:07;2.77;;;2.10;;
10303;SDS011;5197;48.152;8.590;2022-08-06T02:19:44;2.10;;;2.00;;
10303;SDS011;5197;48.152;8.590;2022-08-06T02:22:36;3.10;;;1.90;;
10303;SDS011;5197;48.152;8.590;2022-08-06T02:25:08;4.07;;;2.23;;
10303;SDS011;5197;48.152;8.590;2022-08-06T02:27:48;2.57;;;1.90;;
10303;SDS011;5197;48.152;8.590;2022-08-06T02:30:25;2.67;;;2.00;;
10303;SDS011;5197;48.152;8.590;2022-08-06T02:33:14;2.30;;;2.00;;
10303;SDS011;5197;48.152;8.590;2022-08-06T02:38:55;2.27;;;2.10;;
10303;SDS011;5197;48.152;8.590;2022-08-06T02:44:15;2.87;;;1.90;;
10303;SDS011;5197;48.152;8.590;2022-08-06T02:46:56;2.23;;;2.03;;
10303;SDS011;5197;48.152;8.590;2022-08-06T02:49:28;2.37;;;1.90;;
10303;SDS011;5197;48.152;8.590;2022-08-06T02:52:04;2.10;;;2.00;;
10303;SDS011;5197;48.152;8.590;2022-08-06T02:55:01;2.50;;;2.13;;
10303;SDS011;5197;48.152;8.590;2022-08-06T02:57:36;1.67;;;1.57;;
10303;SDS011;5197;48.152;8.590;2022-08-06T03:00:17;2.00;;;1.90;;
10303;SDS011;5197;48.152;8.590;2022-08-06T03:02:55;3.23;;;1.90;;
10303;SDS011;5197;48.152;8.590;2022-08-06T03:05:27;1.70;;;1.60;;
10303;SDS011;5197;48.152;8.590;2022-08-06T03:08:18;2.30;;;1.80;;
10303;SDS011;5197;48.152;8.590;2022-08-06T03:10:53;3.33;;;1.87;;
10303;SDS011;5197;48.152;8.590;2022-08-06T03:13:21;2.37;;;2.10;;
10303;SDS011;5197;48.152;8.590;2022-08-06T03:15:55;3.40;;;1.80;;
10303;SDS011;5197;48.152;8.590;2022-08-06T03:18:27;3.27;;;2.07;;
10303;SDS011;5197;48.152;8.590;2022-08-06T03:20:55;2.53;;;2.07;;
10303;SDS011;5197;48.152;8.590;2022-08-06T03:23:24;2.13;;;1.90;;
10303;SDS011;5197;48.152;8.590;2022-08-06T03:25:53;1.87;;;1.77;;
10303;SDS011;5197;48.152;8.590;2022-08-06T03:28:22;1.80;;;1.50;;
10303;SDS011;5197;48.152;8.590;2022-08-06T03:30:50;1.70;;;1.60;;
10303;SDS011;5197;48.152;8.590;2022-08-06T03:33:21;2.03;;;1.50;;
10303;SDS011;5197;48.152;8.590;2022-08-06T03:35:55;3.27;;;1.93;;
10303;SDS011;5197;48.152;8.590;2022-08-06T03:38:26;1.77;;;1.60;;
10303;SDS011;5197;48.152;8.590;2022-08-06T03:40:59;1.90;;;1.80;;
10303;SDS011;5197;48.152;8.590;2022-08-06T03:43:27;2.03;;;1.83;;
10303;SDS011;5197;48.152;8.590;2022-08-06T03:46:16;1.70;;;1.60;;
10303;SDS011;5197;48.152;8.590;2022-08-06T03:48:52;1.70;;;1.60;;
10303;SDS011;5197;48.152;8.590;2022-08-06T03:51:21;4.27;;;2.00;;
10303;SDS011;5197;48.152;8.590;2022-08-06T03:54:11;2.10;;;2.00;;
10303;SDS011;5197;48.152;8.590;2022-08-06T03:56:54;3.13;;;1.70;;
10303;SDS011;5197;48.152;8.590;2022-08-06T03:59:25;3.70;;;1.93;;
10303;SDS011;5197;48.152;8.590;2022-08-06T04:02:15;3.30;;;1.90;;
10303;SDS011;5197;48.152;8.590;2022-08-06T04:05:03;3.17;;;1.80;;
10303;SDS011;5197;48.152;8.590;2022-08-06T04:07:32;1.60;;;1.50;;
10303;SDS011;5197;48.152;8.590;2022-08-06T04:10:20;2.03;;;1.80;;
10303;SDS011;5197;48.152;8.590;2022-08-06T04:13:01;4.80;;;1.80;;
10303;SDS011;5197;48.152;8.590;2022-08-06T04:15:54;2.20;;;1.30;;
10303;SDS011;5197;48.152;8.590;2022-08-06T04:18:27;2.63;;;1.80;;
10303;SDS011;5197;48.152;8.590;2022-08-06T04:21:04;1.80;;;1.70;;
10303;SDS011;5197;48.152;8.590;2022-08-06T04:23:46;1.70;;;1.60;;
10303;SDS011;5197;48.152;8.590;2022-08-06T04:26:14;2.10;;;1.90;;
10303;SDS011;5197;48.152;8.590;2022-08-06T04:28:46;2.00;;;1.87;;
10303;SDS011;5197;48.152;8.590;2022-08-06T04:31:19;2.10;;;1.70;;
10303;SDS011;5197;48.152;8.590;2022-08-06T04:34:07;1.80;;;1.70;;
10303;SDS011;5197;48.152;8.590;2022-08-06T04:36:37;2.30;;;1.70;;
10303;SDS011;5197;48.152;8.590;2022-08-06T04:39:11;2.43;;;1.60;;
10303;SDS011;5197;48.152;8.590;2022-08-06T04:41:41;2.27;;;1.60;;
10303;SDS011;5197;48.152;8.590;2022-08-06T04:44:09;1.57;;;1.40;;
10303;SDS011;5197;48.152;8.590;2022-08-06T04:46:39;2.70;;;1.60;;
10303;SDS011;5197;48.152;8.590;2022-08-06T04:49:06;1.73;;;1.60;;
10303;SDS011;5197;48.152;8.590;2022-08-06T04:51:39;3.00;;;1.60;;
10303;SDS011;5197;48.152;8.590;2022-08-06T04:54:27;1.37;;;1.37;;
10303;SDS011;5197;48.152;8.590;2022-08-06T04:56:55;1.80;;;1.60;;
10303;SDS011;5197;48.152;8.590;2022-08-06T04:59:24;3.27;;;1.50;;
10303;SDS011;5197;48.152;8.590;2022-08-06T05:02:11;2.33;;;1.70;;
10303;SDS011;5197;48.152;8.590;2022-08-06T05:04:38;3.27;;;1.60;;
10303;SDS011;5197;48.152;8.590;2022-08-06T05:07:18;1.83;;;1.40;;
10303;SDS011;5197;48.152;8.590;2022-08-06T05:09:48;2.40;;;1.50;;
10303;SDS011;5197;48.152;8.590;2022-08-06T05:12:21;1.50;;;1.40;;
10303;SDS011;5197;48.152;8.590;2022-08-06T05:15:15;1.57;;;1.47;;
10303;SDS011;5197;48.152;8.590;2022-08-06T05:17:56;1.57;;;1.47;;
10303;SDS011;5197;48.152;8.590;2022-08-06T05:20:25;2.70;;;1.80;;
10303;SDS011;5197;48.152;8.590;2022-08-06T05:22:58;5.03;;;1.50;;
10303;SDS011;5197;48.152;8.590;2022-08-06T05:25:37;2.00;;;1.67;;
10303;SDS011;5197;48.152;8.590;2022-08-06T05:28:17;1.73;;;1.60;;
10303;SDS011;5197;48.152;8.590;2022-08-06T05:30:48;1.90;;;1.80;;
10303;SDS011;5197;48.152;8.590;2022-08-06T05:35:56;1.90;;;1.70;;
10303;SDS011;5197;48.152;8.590;2022-08-06T05:38:31;2.23;;;1.70;;
10303;SDS011;5197;48.152;8.590;2022-08-06T05:41:05;2.00;;;1.60;;
10303;SDS011;5197;48.152;8.590;2022-08-06T05:43:37;1.50;;;1.50;;
10303;SDS011;5197;48.152;8.590;2022-08-06T05:46:25;4.07;;;1.67;;
10303;SDS011;5197;48.152;8.590;2022-08-06T05:52:15;1.53;;;1.43;;
10303;SDS011;5197;48.152;8.590;2022-08-06T05:57:39;2.53;;;1.93;;
10303;SDS011;5197;48.152;8.590;2022-08-06T06:00:20;1.70;;;1.60;;
10303;SDS011;5197;48.152;8.590;2022-08-06T06:03:06;2.10;;;1.70;;
10303;SDS011;5197;48.152;8.590;2022-08-06T06:05:54;1.93;;;1.70;;
10303;SDS011;5197;48.152;8.590;2022-08-06T06:08:39;2.13;;;1.57;;
10303;SDS011;5197;48.152;8.590;2022-08-06T06:11:25;2.93;;;1.53;;
10303;SDS011;5197;48.152;8.590;2022-08-06T06:14:27;1.80;;;1.73;;
10303;SDS011;5197;48.152;8.590;2022-08-06T06:23:44;2.57;;;1.73;;
10303;SDS011;5197;48.152;8.590;2022-08-06T06:35:29;2.60;;;1.70;;
10303;SDS011;5197;48.152;8.590;2022-08-06T06:40:53;1.70;;;1.60;;
10303;SDS011;5197;48.152;8.590;2022-08-06T06:43:58;2.33;;;1.80;;
10303;SDS011;5197;48.152;8.590;2022-08-06T06:49:17;1.80;;;1.70;;
10303;SDS011;5197;48.152;8.590;2022-08-06T06:52:10;1.27;;;1.17;;
10303;SDS011;5197;48.152;8.590;2022-08-06T06:55:01;4.07;;;1.57;;
10303;SDS011;5197;48.152;8.590;2022-08-06T06:57:45;2.90;;;1.73;;
10303;SDS011;5197;48.152;8.590;2022-08-06T07:00:17;1.80;;;1.70;;
10303;SDS011;5197;48.152;8.590;2022-08-06T07:03:05;2.23;;;1.60;;
10303;SDS011;5197;48.152;8.590;2022-08-06T07:05:35;1.80;;;1.70;;
10303;SDS011;5197;48.152;8.590;2022-08-06T07:08:26;2.10;;;1.90;;
10303;SDS011;5197;48.152;8.590;2022-08-06T07:11:08;2.50;;;1.53;;
10303;SDS011;5197;48.152;8.590;2022-08-06T07:13:36;4.13;;;2.93;;
10303;SDS011;5197;48.152;8.590;2022-08-06T07:16:16;1.50;;;1.40;;
10303;SDS011;5197;48.152;8.590;2022-08-06T07:19:04;2.70;;;1.90;;
10303;SDS011;5197;48.152;8.590;2022-08-06T07:21:37;1.60;;;1.43;;
10303;SDS011;5197;48.152;8.590;2022-08-06T07:24:17;4.10;;;1.70;;
10303;SDS011;5197;48.152;8.590;2022-08-06T07:27:05;2.00;;;1.80;;
10303;SDS011;5197;48.152;8.590;2022-08-06T07:29:40;1.83;;;1.60;;
10303;SDS011;5197;48.152;8.590;2022-08-06T07:32:25;1.97;;;1.80;;
10303;SDS011;5197;48.152;8.590;2022-08-06T07:34:58;1.60;;;1.50;;
10303;SDS011;5197;48.152;8.590;2022-08-06T07:37:48;3.27;;;1.90;;
10303;SDS011;5197;48.152;8.590;2022-08-06T07:40:27;1.40;;;1.27;;
10303;SDS011;5197;48.152;8.590;2022-08-06T07:43:00;2.80;;;2.07;;
10303;SDS011;5197;48.152;8.590;2022-08-06T07:45:50;1.90;;;1.60;;
10303;SDS011;5197;48.152;8.590;2022-08-06T07:48:26;2.30;;;2.10;;
10303;SDS011;5197;48.152;8.590;2022-08-06T07:50:58;2.57;;;1.83;;
10303;SDS011;5197;48.152;8.590;2022-08-06T07:53:30;5.03;;;1.80;;
10303;SDS011;5197;48.152;8.590;2022-08-06T07:56:19;1.73;;;1.60;;
10303;SDS011;5197;48.152;8.590;2022-08-06T07:58:51;2.20;;;1.87;;
10303;SDS011;5197;48.152;8.590;2022-08-06T08:01:23;2.33;;;2.13;;
10303;SDS011;5197;48.152;8.590;2022-08-06T08:04:02;1.77;;;1.67;;
10303;SDS011;5197;48.152;8.590;2022-08-06T08:07:01;2.07;;;1.63;;
10303;SDS011;5197;48.152;8.590;2022-08-06T08:09:33;3.43;;;1.90;;
10303;SDS011;5197;48.152;8.590;2022-08-06T08:12:22;2.10;;;1.73;;
10303;SDS011;5197;48.152;8.590;2022-08-06T08:15:02;4.70;;;1.83;;
10303;SDS011;5197;48.152;8.590;2022-08-06T08:17:48;3.50;;;1.87;;
10303;SDS011;5197;48.152;8.590;2022-08-06T08:20:24;2.10;;;1.90;;
10303;SDS011;5197;48.152;8.590;2022-08-06T08:23:04;2.30;;;2.00;;
10303;SDS011;5197;48.152;8.590;2022-08-06T08:25:33;2.50;;;1.80;;
10303;SDS011;5197;48.152;8.590;2022-08-06T08:28:08;2.60;;;2.10;;
10303;SDS011;5197;48.152;8.590;2022-08-06T08:30:41;2.07;;;1.87;;
10303;SDS011;5197;48.152;8.590;2022-08-06T08:33:13;1.77;;;1.67;;
10303;SDS011;5197;48.152;8.590;2022-08-06T08:35:44;5.50;;;2.00;;
10303;SDS011;5197;48.152;8.590;2022-08-06T08:38:30;2.30;;;2.10;;
10303;SDS011;5197;48.152;8.590;2022-08-06T08:41:19;2.80;;;2.00;;
10303;SDS011;5197;48.152;8.590;2022-08-06T08:44:09;2.17;;;2.00;;
10303;SDS011;5197;48.152;8.590;2022-08-06T08:46:38;2.27;;;1.70;;
10303;SDS011;5197;48.152;8.590;2022-08-06T08:49:39;3.83;;;2.03;;
10303;SDS011;5197;48.152;8.590;2022-08-06T08:52:13;2.13;;;1.97;;
10303;SDS011;5197;48.152;8.590;2022-08-06T08:54:45;1.93;;;1.83;;
10303;SDS011;5197;48.152;8.590;2022-08-06T08:57:16;2.20;;;1.70;;
10303;SDS011;5197;48.152;8.590;2022-08-06T09:00:05;1.90;;;1.40;;
10303;SDS011;5197;48.152;8.590;2022-08-06T09:02:39;2.03;;;1.87;;
10303;SDS011;5197;48.152;8.590;2022-08-06T09:05:16;2.20;;;1.90;;
10303;SDS011;5197;48.152;8.590;2022-08-06T09:07:44;3.73;;;2.00;;
10303;SDS011;5197;48.152;8.590;2022-08-06T09:10:27;2.93;;;1.90;;
10303;SDS011;5197;48.152;8.590;2022-08-06T09:13:02;2.23;;;1.43;;
10303;SDS011;5197;48.152;8.590;2022-08-06T09:15:49;1.80;;;1.70;;
10303;SDS011;5197;48.152;8.590;2022-08-06T09:18:20;2.90;;;1.87;;
10303;SDS011;5197;48.152;8.590;2022-08-06T09:20:53;2.60;;;1.73;;
10303;SDS011;5197;48.152;8.590;2022-08-06T09:23:23;2.60;;;1.87;;
10303;SDS011;5197;48.152;8.590;2022-08-06T09:25:54;4.37;;;2.10;;
10303;SDS011;5197;48.152;8.590;2022-08-06T09:31:05;3.13;;;1.83;;
10303;SDS011;5197;48.152;8.590;2022-08-06T09:36:44;2.33;;;1.70;;
10303;SDS011;5197;48.152;8.590;2022-08-06T09:39:12;2.47;;;1.67;;
10303;SDS011;5197;48.152;8.590;2022-08-06T09:41:49;2.40;;;1.93;;
10303;SDS011;5197;48.152;8.590;2022-08-06T09:44:19;1.70;;;1.60;;
10303;SDS011;5197;48.152;8.590;2022-08-06T09:47:06;2.90;;;1.77;;
10303;SDS011;5197;48.152;8.590;2022-08-06T09:49:47;2.13;;;1.83;;
10303;SDS011;5197;48.152;8.590;2022-08-06T09:52:25;3.77;;;2.10;;
10303;SDS011;5197;48.152;8.590;2022-08-06T09:54:53;2.50;;;1.73;;
10303;SDS011;5197;48.152;8.590;2022-08-06T09:57:24;4.77;;;1.97;;
10303;SDS011;5197;48.152;8.590;2022-08-06T10:00:02;2.03;;;1.80;;
10303;SDS011;5197;48.152;8.590;2022-08-06T10:02:40;1.83;;;1.73;;
10303;SDS011;5197;48.152;8.590;2022-08-06T10:05:16;4.90;;;1.80;;
10303;SDS011;5197;48.152;8.590;2022-08-06T10:07:46;2.33;;;2.10;;
10303;SDS011;5197;48.152;8.590;2022-08-06T10:10:19;2.37;;;1.77;;
10303;SDS011;5197;48.152;8.590;2022-08-06T10:13:10;2.40;;;2.20;;
10303;SDS011;5197;48.152;8.590;2022-08-06T10:15:55;1.77;;;1.70;;
10303;SDS011;5197;48.152;8.590;2022-08-06T10:21:16;4.03;;;1.90;;
10303;SDS011;5197;48.152;8.590;2022-08-06T10:23:52;2.07;;;1.90;;
10303;SDS011;5197;48.152;8.590;2022-08-06T10:26:28;3.73;;;2.20;;
10303;SDS011;5197;48.152;8.590;2022-08-06T10:29:03;4.40;;;1.83;;
10303;SDS011;5197;48.152;8.590;2022-08-06T10:31:32;1.83;;;1.73;;
10303;SDS011;5197;48.152;8.590;2022-08-06T10:34:06;3.53;;;1.80;;
10303;SDS011;5197;48.152;8.590;2022-08-06T10:36:58;2.23;;;2.00;;
10303;SDS011;5197;48.152;8.590;2022-08-06T10:39:51;3.30;;;2.20;;
10303;SDS011;5197;48.152;8.590;2022-08-06T10:42:35;2.90;;;1.90;;
10303;SDS011;5197;48.152;8.590;2022-08-06T10:45:07;2.33;;;1.80;;
10303;SDS011;5197;48.152;8.590;2022-08-06T10:47:39;3.73;;;2.10;;
10303;SDS011;5197;48.152;8.590;2022-08-06T10:50:29;3.90;;;2.10;;
10303;SDS011;5197;48.152;8.590;2022-08-06T10:53:17;1.83;;;1.73;;
10303;SDS011;5197;48.152;8.590;2022-08-06T10:56:05;2.40;;;2.00;;
10303;SDS011;5197;48.152;8.590;2022-08-06T10:58:35;2.03;;;1.80;;
10303;SDS011;5197;48.152;8.590;2022-08-06T11:01:04;3.43;;;1.90;;
10303;SDS011;5197;48.152;8.590;2022-08-06T11:03:40;2.00;;;1.90;;
10303;SDS011;5197;48.152;8.590;2022-08-06T11:14:49;2.33;;;1.87;;
10303;SDS011;5197;48.152;8.590;2022-08-06T11:17:19;2.00;;;1.57;;
10303;SDS011;5197;48.152;8.590;2022-08-06T11:19:48;2.20;;;2.00;;
10303;SDS011;5197;48.152;8.590;2022-08-06T11:22:39;1.80;;;1.70;;
10303;SDS011;5197;48.152;8.590;2022-08-06T11:25:20;2.90;;;2.53;;
10303;SDS011;5197;48.152;8.590;2022-08-06T11:28:14;2.35;;;2.00;;
10303;SDS011;5197;48.152;8.590;2022-08-06T11:35:59;1.80;;;1.70;;
10303;SDS011;5197;48.152;8.590;2022-08-06T11:41:18;2.00;;;1.90;;
10303;SDS011;5197;48.152;8.590;2022-08-06T11:44:08;1.85;;;1.75;;
10303;SDS011;5197;48.152;8.590;2022-08-06T11:49:12;2.58;;;2.20;;
10303;SDS011;5197;48.152;8.590;2022-08-06T11:51:49;5.45;;;2.63;;
10303;SDS011;5197;48.152;8.590;2022-08-06T11:54:33;1.98;;;1.80;;
10303;SDS011;5197;48.152;8.590;2022-08-06T11:59:29;3.40;;;1.80;;
10303;SDS011;5197;48.152;8.590;2022-08-06T12:09:42;2.42;;;1.95;;
10303;SDS011;5197;48.152;8.590;2022-08-06T12:14:56;3.58;;;2.10;;
10303;SDS011;5197;48.152;8.590;2022-08-06T12:17:32;3.40;;;1.77;;
10303;SDS011;5197;48.152;8.590;2022-08-06T12:20:29;3.03;;;1.98;;
10303;SDS011;5197;48.152;8.590;2022-08-06T12:23:15;1.85;;;1.75;;
10303;SDS011;5197;48.152;8.590;2022-08-06T12:25:45;2.58;;;1.90;;
10303;SDS011;5197;48.152;8.590;2022-08-06T12:28:14;1.85;;;1.75;;
10303;SDS011;5197;48.152;8.590;2022-08-06T12:30:44;2.40;;;2.00;;
10303;SDS011;5197;48.152;8.590;2022-08-06T12:33:16;2.05;;;1.95;;
10303;SDS011;5197;48.152;8.590;2022-08-06T12:38:14;2.65;;;1.90;;
10303;SDS011;5197;48.152;8.590;2022-08-06T12:40:50;2.47;;;1.83;;
10303;SDS011;5197;48.152;8.590;2022-08-06T12:43:21;2.35;;;2.08;;
10303;SDS011;5197;48.152;8.590;2022-08-06T12:46:08;3.33;;;2.08;;
10303;SDS011;5197;48.152;8.590;2022-08-06T12:48:46;4.13;;;1.85;;
10303;SDS011;5197;48.152;8.590;2022-08-06T12:51:16;3.25;;;2.10;;
10303;SDS011;5197;48.152;8.590;2022-08-06T12:53:52;2.47;;;1.90;;
10303;SDS011;5197;48.152;8.590;2022-08-06T12:56:24;1.80;;;1.70;;
10303;SDS011;5197;48.152;8.590;2022-08-06T12:58:57;2.00;;;1.90;;
10303;SDS011;5197;48.152;8.590;2022-08-06T13:01:27;2.08;;;1.65;;
10303;SDS011;5197;48.152;8.590;2022-08-06T13:04:16;2.28;;;2.05;;
10303;SDS011;5197;48.152;8.590;2022-08-06T13:06:45;2.20;;;2.00;;
10303;SDS011;5197;48.152;8.590;2022-08-06T13:09:15;1.85;;;1.75;;
10303;SDS011;5197;48.152;8.590;2022-08-06T13:11:43;2.22;;;1.80;;
10303;SDS011;5197;48.152;8.590;2022-08-06T13:14:17;3.92;;;1.83;;
10303;SDS011;5197;48.152;8.590;2022-08-06T13:16:47;2.80;;;1.92;;
10303;SDS011;5197;48.152;8.590;2022-08-06T13:19:23;2.28;;;1.98;;
10303;SDS011;5197;48.152;8.590;2022-08-06T13:22:00;2.38;;;2.17;;
10303;SDS011;5197;48.152;8.590;2022-08-06T13:24:31;2.45;;;2.10;;
10303;SDS011;5197;48.152;8.590;2022-08-06T13:27:01;1.98;;;1.58;;
10303;SDS011;5197;48.152;8.590;2022-08-06T13:29:33;2.28;;;1.90;;
10303;SDS011;5197;48.152;8.590;2022-08-06T13:32:23;2.67;;;1.75;;
10303;SDS011;5197;48.152;8.590;2022-08-06T13:35:06;3.17;;;1.80;;
10303;SDS011;5197;48.152;8.590;2022-08-06T13:37:44;3.17;;;2.00;;
10303;SDS011;5197;48.152;8.590;2022-08-06T13:40:37;1.95;;;1.70;;
10303;SDS011;5197;48.152;8.590;2022-08-06T13:43:11;1.73;;;1.60;;
10303;SDS011;5197;48.152;8.590;2022-08-06T13:46:06;1.90;;;1.70;;
10303;SDS011;5197;48.152;8.590;2022-08-06T13:48:49;1.98;;;1.80;;
10303;SDS011;5197;48.152;8.590;2022-08-06T13:51:18;2.25;;;1.85;;
10303;SDS011;5197;48.152;8.590;2022-08-06T13:53:53;2.15;;;1.90;;
10303;SDS011;5197;48.152;8.590;2022-08-06T13:56:24;4.00;;;1.92;;
10303;SDS011;5197;48.152;8.590;2022-08-06T13:58:56;2.00;;;1.90;;
10303;SDS011;5197;48.152;8.590;2022-08-06T14:01:23;2.70;;;2.10;;
10303;SDS011;5197;48.152;8.590;2022-08-06T14:04:11;3.13;;;1.73;;
10303;SDS011;5197;48.152;8.590;2022-08-06T14:06:40;2.00;;;1.90;;
10303;SDS011;5197;48.152;8.590;2022-08-06T14:09:12;1.80;;;1.70;;
10303;SDS011;5197;48.152;8.590;2022-08-06T14:11:52;1.70;;;1.58;;
10303;SDS011;5197;48.152;8.590;2022-08-06T14:14:23;2.08;;;1.73;;
10303;SDS011;5197;48.152;8.590;2022-08-06T14:16:53;1.98;;;1.80;;
10303;SDS011;5197;48.152;8.590;2022-08-06T14:19:22;1.70;;;1.70;;
10303;SDS011;5197;48.152;8.590;2022-08-06T14:22:09;3.05;;;1.90;;
10303;SDS011;5197;48.152;8.590;2022-08-06T14:24:37;4.45;;;1.75;;
10303;SDS011;5197;48.152;8.590;2022-08-06T14:27:06;2.05;;;1.80;;
10303;SDS011;5197;48.152;8.590;2022-08-06T14:29:41;2.00;;;1.90;;
10303;SDS011;5197;48.152;8.590;2022-08-06T14:32:29;2.03;;;1.80;;
10303;SDS011;5197;48.152;8.590;2022-08-06T14:34:56;2.00;;;1.70;;
10303;SDS011;5197;48.152;8.590;2022-08-06T14:37:29;3.50;;;2.00;;
10303;SDS011;5197;48.152;8.590;2022-08-06T14:40:16;1.80;;;1.70;;
10303;SDS011;5197;48.152;8.590;2022-08-06T14:43:23;2.00;;;1.90;;
10303;SDS011;5197;48.152;8.590;2022-08-06T14:46:22;2.17;;;1.77;;
10303;SDS011;5197;48.152;8.590;2022-08-06T14:48:56;3.58;;;1.77;;
10303;SDS011;5197;48.152;8.590;2022-08-06T14:51:36;1.58;;;1.50;;
10303;SDS011;5197;48.152;8.590;2022-08-06T14:54:23;1.63;;;1.52;;
10303;SDS011;5197;48.152;8.590;2022-08-06T14:56:58;3.00;;;1.67;;
10303;SDS011;5197;48.152;8.590;2022-08-06T14:59:28;1.98;;;1.88;;
10303;SDS011;5197;48.152;8.590;2022-08-06T15:02:13;1.60;;;1.50;;
10303;SDS011;5197;48.152;8.590;2022-08-06T15:04:41;2.10;;;1.88;;
10303;SDS011;5197;48.152;8.590;2022-08-06T15:07:17;1.67;;;1.58;;
10303;SDS011;5197;48.152;8.590;2022-08-06T15:09:51;2.10;;;1.75;;
10303;SDS011;5197;48.152;8.590;2022-08-06T15:12:39;1.67;;;1.58;;
10303;SDS011;5197;48.152;8.590;2022-08-06T15:15:16;3.05;;;1.80;;
10303;SDS011;5197;48.152;8.590;2022-08-06T15:17:49;2.08;;;1.50;;
10303;SDS011;5197;48.152;8.590;2022-08-06T15:20:36;1.73;;;1.60;;
10303;SDS011;5197;48.152;8.590;2022-08-06T15:23:03;2.92;;;1.63;;
10303;SDS011;5197;48.152;8.590;2022-08-06T15:25:31;2.08;;;1.70;;
10303;SDS011;5197;48.152;8.590;2022-08-06T15:28:18;9.85;;;1.85;;
10303;SDS011;5197;48.152;8.590;2022-08-06T15:30:45;1.58;;;1.45;;
10303;SDS011;5197;48.152;8.590;2022-08-06T15:33:13;1.80;;;1.70;;
10303;SDS011;5197;48.152;8.590;2022-08-06T15:35:42;2.38;;;1.50;;
10303;SDS011;5197;48.152;8.590;2022-08-06T15:38:24;2.15;;;1.60;;
10303;SDS011;5197;48.152;8.590;2022-08-06T15:40:58;4.05;;;1.98;;
10303;SDS011;5197;48.152;8.590;2022-08-06T15:43:26;2.08;;;1.80;;
10303;SDS011;5197;48.152;8.590;2022-08-06T15:46:10;1.50;;;1.40;;
10303;SDS011;5197;48.152;8.590;2022-08-06T15:48:53;2.15;;;1.70;;
10303;SDS011;5197;48.152;8.590;2022-08-06T15:51:22;2.47;;;1.80;;
10303;SDS011;5197;48.152;8.590;2022-08-06T15:53:56;1.60;;;1.48;;
10303;SDS011;5197;48.152;8.590;2022-08-06T15:56:24;2.88;;;1.65;;
10303;SDS011;5197;48.152;8.590;2022-08-06T15:59:05;3.53;;;1.70;;
10303;SDS011;5197;48.152;8.590;2022-08-06T16:01:37;3.08;;;1.70;;
10303;SDS011;5197;48.152;8.590;2022-08-06T16:04:28;1.60;;;1.50;;
10303;SDS011;5197;48.152;8.590;2022-08-06T16:07:02;3.20;;;1.77;;
10303;SDS011;5197;48.152;8.590;2022-08-06T16:09:31;2.08;;;1.73;;
10303;SDS011;5197;48.152;8.590;2022-08-06T16:12:19;2.25;;;1.70;;
10303;SDS011;5197;48.152;8.590;2022-08-06T16:14:47;1.92;;;1.60;;
10303;SDS011;5197;48.152;8.590;2022-08-06T16:17:24;1.90;;;1.70;;
10303;SDS011;5197;48.152;8.590;2022-08-06T16:20:12;1.50;;;1.40;;
10303;SDS011;5197;48.152;8.590;2022-08-06T16:22:48;1.70;;;1.60;;
10303;SDS011;5197;48.152;8.590;2022-08-06T16:25:17;2.53;;;1.67;;
10303;SDS011;5197;48.152;8.590;2022-08-06T16:27:46;2.75;;;1.60;;
10303;SDS011;5197;48.152;8.590;2022-08-06T16:30:17;3.38;;;1.90;;
10303;SDS011;5197;48.152;8.590;2022-08-06T16:32:44;1.70;;;1.58;;
10303;SDS011;5197;48.152;8.590;2022-08-06T16:35:14;1.75;;;1.60;;
10303;SDS011;5197;48.152;8.590;2022-08-06T16:37:47;5.05;;;1.48;;
10303;SDS011;5197;48.152;8.590;2022-08-06T16:40:35;2.80;;;1.83;;
10303;SDS011;5197;48.152;8.590;2022-08-06T16:43:03;1.60;;;1.50;;
10303;SDS011;5197;48.152;8.590;2022-08-06T16:45:33;1.60;;;1.50;;
10303;SDS011;5197;48.152;8.590;2022-08-06T16:48:03;1.67;;;1.58;;
10303;SDS011;5197;48.152;8.590;2022-08-06T16:50:50;1.77;;;1.67;;
10303;SDS011;5197;48.152;8.590;2022-08-06T16:53:17;3.60;;;1.48;;
10303;SDS011;5197;48.152;8.590;2022-08-06T16:56:04;1.88;;;1.65;;
10303;SDS011;5197;48.152;8.590;2022-08-06T16:58:33;1.65;;;1.42;;
10303;SDS011;5197;48.152;8.590;2022-08-06T17:01:13;1.85;;;1.75;;
10303;SDS011;5197;48.152;8.590;2022-08-06T17:04:01;2.38;;;1.40;;
10303;SDS011;5197;48.152;8.590;2022-08-06T17:06:33;1.70;;;1.60;;
10303;SDS011;5197;48.152;8.590;2022-08-06T17:09:02;1.60;;;1.50;;
10303;SDS011;5197;48.152;8.590;2022-08-06T17:11:44;3.53;;;1.58;;
10303;SDS011;5197;48.152;8.590;2022-08-06T17:14:26;1.80;;;1.60;;
10303;SDS011;5197;48.152;8.590;2022-08-06T17:16:57;3.58;;;1.70;;
10303;SDS011;5197;48.152;8.590;2022-08-06T17:19:32;3.75;;;1.77;;
10303;SDS011;5197;48.152;8.590;2022-08-06T17:22:02;1.30;;;1.30;;
10303;SDS011;5197;48.152;8.590;2022-08-06T17:24:32;2.33;;;1.60;;
10303;SDS011;5197;48.152;8.590;2022-08-06T17:27:08;1.65;;;1.55;;